Time;durP1;ratioP1;P1;durP2;ratioP2;P2;SDS_P1;SDS_P2;PMS_P1;PMS_P2;Temp;Humidity;BMP_temperature;BMP_pressure;BME280_temperature;BME280_humidity;BME280_pressure;Samples;Min_cycle;Max_cycle;Signal;HPM_P1;HPM_P2
2024/03/07 00:00:14;;;;;;;3.63;1.60;;;;;;;;;;5085059;28;20023;-64
2024/03/07 00:02:44;;;;;;;5.43;2.10;;;;;;;;;;5104120;28;20028;-63
2024/03/07 00:05:10;;;;;;;2.72;1.95;;;;;;;;;;5100600;28;20051;-63
2024/03/07 00:07:37;;;;;;;5.25;2.13;;;;;;;;;;5090249;28;20153;-63
2024/03/07 00:10:06;;;;;;;8.20;2.08;;;;;;;;;;5093906;28;20055;-64
2024/03/07 00:12:33;;;;;;;4.13;2.00;;;;;;;;;;5091687;28;20503;-66
2024/03/07 00:14:59;;;;;;;1.92;1.80;;;;;;;;;;5077979;28;20108;-64
2024/03/07 00:17:25;;;;;;;4.75;2.67;;;;;;;;;;5099059;28;20028;-64
2024/03/07 00:19:51;;;;;;;2.00;1.80;;;;;;;;;;5085082;28;20047;-64
2024/03/07 00:22:18;;;;;;;5.30;2.00;;;;;;;;;;5095354;28;20537;-64
2024/03/07 00:24:47;;;;;;;1.70;1.60;;;;;;;;;;5101158;27;20031;-64
2024/03/07 00:27:16;;;;;;;6.63;2.03;;;;;;;;;;5083639;28;20028;-63
2024/03/07 00:29:43;;;;;;;2.15;1.95;;;;;;;;;;5090020;28;20059;-64
2024/03/07 00:32:10;;;;;;;8.90;2.75;;;;;;;;;;5091987;28;20392;-64
2024/03/07 00:34:36;;;;;;;9.05;2.10;;;;;;;;;;5089452;28;20028;-64
2024/03/07 00:37:02;;;;;;;2.50;2.05;;;;;;;;;;5090797;28;20237;-64
2024/03/07 00:39:28;;;;;;;4.20;1.98;;;;;;;;;;5094678;28;20022;-64
2024/03/07 00:41:54;;;;;;;3.15;2.17;;;;;;;;;;5070140;28;20966;-64
2024/03/07 00:44:21;;;;;;;3.67;1.80;;;;;;;;;;5095614;28;20085;-64
2024/03/07 00:46:47;;;;;;;7.00;2.30;;;;;;;;;;5057289;28;20065;-64
2024/03/07 00:49:13;;;;;;;5.10;1.83;;;;;;;;;;5084868;28;20028;-64
2024/03/07 00:51:39;;;;;;;4.90;1.65;;;;;;;;;;5096754;28;20028;-64
2024/03/07 00:54:06;;;;;;;6.32;1.98;;;;;;;;;;5087015;28;20212;-65
2024/03/07 00:56:33;;;;;;;9.65;2.25;;;;;;;;;;5092488;28;20411;-64
2024/03/07 00:58:59;;;;;;;5.78;2.28;;;;;;;;;;5092252;28;20409;-65
2024/03/07 01:01:25;;;;;;;13.52;2.05;;;;;;;;;;5094375;28;20046;-64
2024/03/07 01:03:52;;;;;;;2.30;2.00;;;;;;;;;;5101459;28;20026;-64
2024/03/07 01:06:20;;;;;;;3.60;2.10;;;;;;;;;;5093221;28;20031;-64
2024/03/07 01:08:46;;;;;;;2.38;1.88;;;;;;;;;;5098665;28;20451;-64
2024/03/07 01:11:12;;;;;;;2.47;1.90;;;;;;;;;;5083110;28;20052;-64
2024/03/07 01:13:45;;;;;;;6.60;1.80;;;;;;;;;;5099789;28;20428;-64
2024/03/07 01:16:11;;;;;;;1.67;1.58;;;;;;;;;;5102036;28;20036;-64
2024/03/07 01:18:38;;;;;;;1.83;1.50;;;;;;;;;;5095272;28;20528;-64
2024/03/07 01:21:05;;;;;;;4.30;1.70;;;;;;;;;;5101344;28;20403;-64
2024/03/07 01:23:32;;;;;;;2.80;2.10;;;;;;;;;;5098246;28;20052;-64
2024/03/07 01:25:58;;;;;;;15.10;2.78;;;;;;;;;;5084486;28;20054;-64
2024/03/07 01:28:25;;;;;;;3.80;1.58;;;;;;;;;;5098973;28;20036;-64
2024/03/07 01:30:52;;;;;;;7.22;2.13;;;;;;;;;;5096891;27;20031;-64
2024/03/07 01:33:19;;;;;;;4.13;1.95;;;;;;;;;;5090335;28;20115;-63
2024/03/07 01:35:45;;;;;;;1.77;1.65;;;;;;;;;;5103635;28;20036;-64
2024/03/07 01:38:13;;;;;;;7.10;2.88;;;;;;;;;;5094294;28;20591;-64
2024/03/07 01:40:40;;;;;;;10.88;2.03;;;;;;;;;;5102899;27;20049;-64
2024/03/07 01:43:07;;;;;;;1.80;1.70;;;;;;;;;;5098370;28;20477;-64
2024/03/07 01:45:33;;;;;;;4.93;1.70;;;;;;;;;;5091272;27;20020;-64
2024/03/07 01:48:00;;;;;;;1.77;1.67;;;;;;;;;;5082653;28;20042;-64
2024/03/07 01:50:26;;;;;;;8.00;2.42;;;;;;;;;;5093338;27;20378;-64
2024/03/07 01:52:55;;;;;;;3.90;1.65;;;;;;;;;;5097178;28;20038;-65
2024/03/07 01:55:22;;;;;;;2.42;1.67;;;;;;;;;;5106050;28;20035;-64
2024/03/07 01:57:48;;;;;;;1.83;1.73;;;;;;;;;;5097266;28;20060;-65
2024/03/07 02:00:15;;;;;;;5.78;1.95;;;;;;;;;;5103690;27;20077;-64
2024/03/07 02:02:41;;;;;;;3.40;1.67;;;;;;;;;;5091614;27;20484;-63
2024/03/07 02:05:07;;;;;;;4.18;2.15;;;;;;;;;;5103531;28;20506;-64
2024/03/07 02:07:33;;;;;;;2.70;1.58;;;;;;;;;;5104539;28;20062;-64
2024/03/07 02:10:06;;;;;;;5.05;1.67;;;;;;;;;;5100525;28;20028;-63
2024/03/07 02:12:32;;;;;;;5.72;1.98;;;;;;;;;;5094964;28;20081;-65
2024/03/07 02:14:59;;;;;;;1.75;1.63;;;;;;;;;;5097873;28;20123;-63
2024/03/07 02:17:26;;;;;;;1.63;1.52;;;;;;;;;;5095098;27;20087;-63
2024/03/07 02:19:52;;;;;;;3.72;1.60;;;;;;;;;;5096469;28;20032;-63
2024/03/07 02:22:19;;;;;;;2.95;1.90;;;;;;;;;;5101319;27;20353;-63
2024/03/07 02:24:46;;;;;;;1.83;1.60;;;;;;;;;;5097020;28;20023;-64
2024/03/07 02:27:14;;;;;;;1.80;1.70;;;;;;;;;;5099726;27;20058;-63
2024/03/07 02:29:43;;;;;;;4.97;3.03;;;;;;;;;;5098193;28;20034;-63
2024/03/07 02:32:10;;;;;;;3.33;1.90;;;;;;;;;;5084123;28;20034;-63
2024/03/07 02:34:36;;;;;;;6.97;2.22;;;;;;;;;;5091454;28;20031;-64
2024/03/07 02:37:02;;;;;;;7.28;1.98;;;;;;;;;;5095828;27;20043;-64
2024/03/07 02:39:29;;;;;;;6.70;2.05;;;;;;;;;;5099196;28;20284;-64
2024/03/07 02:41:55;;;;;;;5.28;2.20;;;;;;;;;;5086341;27;20028;-63
2024/03/07 02:44:21;;;;;;;6.07;2.05;;;;;;;;;;5088488;28;20034;-64
2024/03/07 02:46:47;;;;;;;3.33;1.95;;;;;;;;;;5094023;27;20028;-64
2024/03/07 02:49:16;;;;;;;8.70;2.85;;;;;;;;;;5096085;27;20298;-63
2024/03/07 02:51:42;;;;;;;2.90;1.92;;;;;;;;;;5093245;27;20024;-64
2024/03/07 02:54:09;;;;;;;4.10;2.33;;;;;;;;;;5094860;28;20512;-65
2024/03/07 02:56:35;;;;;;;5.53;2.65;;;;;;;;;;5096339;27;20549;-64
2024/03/07 02:59:01;;;;;;;10.95;2.10;;;;;;;;;;5093891;28;20118;-64
2024/03/07 03:01:27;;;;;;;10.93;2.20;;;;;;;;;;5097516;27;20054;-64
2024/03/07 03:03:53;;;;;;;5.70;2.28;;;;;;;;;;5091728;28;20028;-63
2024/03/07 03:06:23;;;;;;;9.38;2.10;;;;;;;;;;5097876;28;20023;-63
2024/03/07 03:08:49;;;;;;;3.30;1.95;;;;;;;;;;5096520;27;21067;-64
2024/03/07 03:11:16;;;;;;;2.65;2.15;;;;;;;;;;5096757;27;20031;-64
2024/03/07 03:13:42;;;;;;;6.18;3.05;;;;;;;;;;5088019;28;20043;-63
2024/03/07 03:16:09;;;;;;;20.10;2.63;;;;;;;;;;5093924;28;20078;-64
2024/03/07 03:18:35;;;;;;;3.22;2.28;;;;;;;;;;5095543;28;20020;-65
2024/03/07 03:21:02;;;;;;;3.03;2.42;;;;;;;;;;5101002;28;20314;-64
2024/03/07 03:23:28;;;;;;;3.10;2.05;;;;;;;;;;5093436;28;20366;-64
2024/03/07 03:25:55;;;;;;;4.38;2.72;;;;;;;;;;5076808;28;20079;-65
2024/03/07 03:28:21;;;;;;;2.60;1.92;;;;;;;;;;5098122;27;20309;-64
2024/03/07 03:30:48;;;;;;;4.72;2.80;;;;;;;;;;5092726;28;20242;-66
2024/03/07 03:33:15;;;;;;;3.83;2.38;;;;;;;;;;5091942;28;20082;-64
2024/03/07 03:35:41;;;;;;;9.35;2.78;;;;;;;;;;5097310;28;20438;-64
2024/03/07 03:38:08;;;;;;;4.95;2.58;;;;;;;;;;5101306;27;20396;-64
2024/03/07 03:40:34;;;;;;;3.35;2.22;;;;;;;;;;5094157;28;20020;-64
2024/03/07 03:43:01;;;;;;;2.42;2.03;;;;;;;;;;5085356;27;20517;-68
2024/03/07 03:45:27;;;;;;;4.53;2.53;;;;;;;;;;5095559;28;20020;-63
2024/03/07 03:47:54;;;;;;;9.07;3.42;;;;;;;;;;5093194;28;20030;-63
2024/03/07 03:50:22;;;;;;;13.05;2.22;;;;;;;;;;5076267;27;20027;-62
2024/03/07 03:52:49;;;;;;;3.58;1.85;;;;;;;;;;5092542;27;20028;-63
2024/03/07 03:55:15;;;;;;;5.05;2.35;;;;;;;;;;5090752;28;20028;-63
2024/03/07 03:57:42;;;;;;;2.83;2.40;;;;;;;;;;5093373;28;20031;-63
2024/03/07 04:00:16;;;;;;;13.27;2.88;;;;;;;;;;5093469;27;20028;-64
2024/03/07 04:02:43;;;;;;;3.80;2.47;;;;;;;;;;5094689;28;20027;-63
2024/03/07 04:05:10;;;;;;;3.55;2.17;;;;;;;;;;5084819;28;20054;-64
2024/03/07 04:07:36;;;;;;;2.72;2.03;;;;;;;;;;5098247;28;20578;-63
2024/03/07 04:10:03;;;;;;;4.40;2.47;;;;;;;;;;5091429;28;20038;-63
2024/03/07 04:12:29;;;;;;;6.45;2.38;;;;;;;;;;5093383;28;20474;-64
2024/03/07 04:14:55;;;;;;;7.80;2.50;;;;;;;;;;5099791;28;20034;-64
2024/03/07 04:17:22;;;;;;;7.15;2.50;;;;;;;;;;5088517;28;20055;-63
2024/03/07 04:19:48;;;;;;;5.93;2.38;;;;;;;;;;5078234;28;20024;-64
2024/03/07 04:22:14;;;;;;;8.43;2.88;;;;;;;;;;5096872;28;20381;-64
2024/03/07 04:24:40;;;;;;;3.50;2.33;;;;;;;;;;5093712;28;20032;-64
2024/03/07 04:27:07;;;;;;;3.50;2.00;;;;;;;;;;5097266;28;20092;-64
2024/03/07 04:29:34;;;;;;;3.58;2.47;;;;;;;;;;5080315;28;20045;-64
2024/03/07 04:32:01;;;;;;;4.20;2.58;;;;;;;;;;5087548;28;20035;-64
2024/03/07 04:34:30;;;;;;;6.22;2.70;;;;;;;;;;5095807;28;20107;-63
2024/03/07 04:37:02;;;;;;;9.75;2.60;;;;;;;;;;5089949;28;20039;-64
2024/03/07 04:39:35;;;;;;;10.32;2.97;;;;;;;;;;5093199;28;20107;-64
2024/03/07 04:42:01;;;;;;;3.40;2.25;;;;;;;;;;5100365;27;20032;-63
2024/03/07 04:44:31;;;;;;;7.13;2.67;;;;;;;;;;5095595;27;20194;-64
2024/03/07 04:47:00;;;;;;;5.28;2.35;;;;;;;;;;5098168;27;20063;-63
2024/03/07 04:49:30;;;;;;;4.97;2.63;;;;;;;;;;5098176;27;20035;-64
2024/03/07 04:52:00;;;;;;;6.45;2.47;;;;;;;;;;5101986;27;20038;-64
2024/03/07 04:54:27;;;;;;;11.00;2.63;;;;;;;;;;5099007;27;20059;-63
2024/03/07 04:56:54;;;;;;;5.97;2.72;;;;;;;;;;5078147;27;20321;-64
2024/03/07 04:59:21;;;;;;;12.63;3.25;;;;;;;;;;5100504;27;20122;-64
2024/03/07 05:01:48;;;;;;;6.10;2.47;;;;;;;;;;5102538;27;20020;-63
2024/03/07 05:04:14;;;;;;;3.20;2.25;;;;;;;;;;5101639;28;20469;-63
2024/03/07 05:06:40;;;;;;;3.60;2.08;;;;;;;;;;5094837;27;20110;-63
2024/03/07 05:09:08;;;;;;;4.35;2.30;;;;;;;;;;5096995;27;20081;-64
2024/03/07 05:11:35;;;;;;;4.20;2.58;;;;;;;;;;5109552;27;20040;-63
2024/03/07 05:14:01;;;;;;;6.15;2.35;;;;;;;;;;5100712;27;20109;-63
2024/03/07 05:16:28;;;;;;;7.00;2.53;;;;;;;;;;5097577;27;20047;-63
2024/03/07 05:18:58;;;;;;;4.43;2.38;;;;;;;;;;5105067;27;20023;-63
2024/03/07 05:21:57;;;;;;;2.20;2.00;;;;;;;;;;5086075;27;20035;-63
2024/03/07 05:24:17;;;;;;;3.83;2.10;;;;;;;;;;5092809;27;20043;-63
2024/03/07 05:26:45;;;;;;;4.72;2.40;;;;;;;;;;5095832;27;20297;-66
2024/03/07 05:29:11;;;;;;;2.00;1.80;;;;;;;;;;5103579;27;20397;-64
2024/03/07 05:31:49;;;;;;;2.25;1.98;;;;;;;;;;5085478;28;20082;-64
2024/03/07 05:34:18;;;;;;;8.55;2.40;;;;;;;;;;5101104;27;20123;-64
2024/03/07 05:36:46;;;;;;;9.02;2.08;;;;;;;;;;5085507;28;20055;-64
2024/03/07 05:39:15;;;;;;;7.28;3.38;;;;;;;;;;5097564;27;20043;-64
2024/03/07 05:41:42;;;;;;;5.00;2.15;;;;;;;;;;5100195;27;20024;-64
2024/03/07 05:44:09;;;;;;;4.43;1.95;;;;;;;;;;5085897;27;20055;-64
2024/03/07 05:46:45;;;;;;;3.50;1.98;;;;;;;;;;5098351;28;20034;-64
2024/03/07 05:49:12;;;;;;;3.33;2.67;;;;;;;;;;5097414;27;20040;-63
2024/03/07 05:51:38;;;;;;;5.93;2.72;;;;;;;;;;5104675;27;20470;-63
2024/03/07 05:54:07;;;;;;;7.57;2.47;;;;;;;;;;5098079;28;21059;-63
2024/03/07 05:56:36;;;;;;;1.95;1.77;;;;;;;;;;5100829;28;20039;-64
2024/03/07 05:59:09;;;;;;;5.18;2.58;;;;;;;;;;5077559;28;20028;-63
2024/03/07 06:01:36;;;;;;;9.98;2.20;;;;;;;;;;5097462;28;20024;-63
2024/03/07 06:04:05;;;;;;;3.05;1.80;;;;;;;;;;5096301;28;20066;-64
2024/03/07 06:06:32;;;;;;;10.40;2.40;;;;;;;;;;5078369;28;20028;-63
2024/03/07 06:09:07;;;;;;;4.88;2.05;;;;;;;;;;5093280;27;20440;-64
2024/03/07 06:11:33;;;;;;;4.00;1.98;;;;;;;;;;5093867;28;20070;-63
2024/03/07 06:14:02;;;;;;;4.90;3.10;;;;;;;;;;5097984;27;20557;-64
2024/03/07 06:16:28;;;;;;;8.18;2.38;;;;;;;;;;5075884;28;20074;-64
2024/03/07 06:18:58;;;;;;;4.57;1.88;;;;;;;;;;5097090;27;20027;-66
2024/03/07 06:21:25;;;;;;;5.63;2.15;;;;;;;;;;5083861;28;20524;-64
2024/03/07 06:23:59;;;;;;;9.48;2.70;;;;;;;;;;5090784;27;20073;-64
2024/03/07 06:26:37;;;;;;;12.90;2.38;;;;;;;;;;5090155;27;21495;-63
2024/03/07 06:29:22;;;;;;;4.38;2.10;;;;;;;;;;5097441;27;20031;-64
2024/03/07 06:31:50;;;;;;;6.88;2.40;;;;;;;;;;5091915;28;20027;-63
2024/03/07 06:34:17;;;;;;;5.28;2.40;;;;;;;;;;5102434;28;20499;-65
2024/03/07 06:36:43;;;;;;;2.88;1.98;;;;;;;;;;5101063;28;20071;-63
2024/03/07 06:39:13;;;;;;;5.15;1.98;;;;;;;;;;5100126;28;20039;-63
2024/03/07 06:41:39;;;;;;;6.93;1.92;;;;;;;;;;5089533;28;20024;-64
2024/03/07 06:44:07;;;;;;;6.13;2.00;;;;;;;;;;5100099;27;20080;-63
2024/03/07 06:46:34;;;;;;;6.05;2.30;;;;;;;;;;5077008;28;20016;-64
2024/03/07 06:49:00;;;;;;;3.30;1.92;;;;;;;;;;5095060;27;20031;-63
2024/03/07 06:51:26;;;;;;;6.85;2.35;;;;;;;;;;5090294;28;20485;-63
2024/03/07 06:53:52;;;;;;;1.92;1.75;;;;;;;;;;5096546;27;20059;-64
2024/03/07 06:56:19;;;;;;;9.68;2.28;;;;;;;;;;5097971;27;20086;-64
2024/03/07 06:58:48;;;;;;;5.68;3.17;;;;;;;;;;5097943;28;20181;-64
2024/03/07 07:01:15;;;;;;;3.28;2.03;;;;;;;;;;5097051;28;20763;-64
2024/03/07 07:03:45;;;;;;;2.67;2.10;;;;;;;;;;5087911;28;20027;-64
2024/03/07 07:06:12;;;;;;;9.75;2.70;;;;;;;;;;5100530;28;20124;-68
2024/03/07 07:08:38;;;;;;;6.35;3.03;;;;;;;;;;5101644;27;20111;-65
2024/03/07 07:11:04;;;;;;;7.32;2.20;;;;;;;;;;5088579;27;20239;-64
2024/03/07 07:13:31;;;;;;;1.98;1.88;;;;;;;;;;5091788;27;20035;-63
2024/03/07 07:15:57;;;;;;;5.50;2.58;;;;;;;;;;5099480;27;20020;-64
2024/03/07 07:18:23;;;;;;;2.00;1.90;;;;;;;;;;5099877;28;20028;-63
2024/03/07 07:20:52;;;;;;;4.38;2.17;;;;;;;;;;5080064;28;20423;-64
2024/03/07 07:23:18;;;;;;;3.28;2.20;;;;;;;;;;5079582;28;20408;-63
2024/03/07 07:25:46;;;;;;;10.93;2.40;;;;;;;;;;5082879;28;20538;-63
2024/03/07 07:28:12;;;;;;;12.88;2.88;;;;;;;;;;5090827;28;20063;-65
2024/03/07 07:30:38;;;;;;;6.55;2.30;;;;;;;;;;5081026;28;20031;-63
2024/03/07 07:33:04;;;;;;;3.28;2.40;;;;;;;;;;5096475;27;20031;-64
2024/03/07 07:35:31;;;;;;;10.75;3.28;;;;;;;;;;5099659;27;20036;-64
2024/03/07 07:37:57;;;;;;;9.98;2.35;;;;;;;;;;5104500;28;20036;-63
2024/03/07 07:40:27;;;;;;;5.13;3.10;;;;;;;;;;5105124;27;20041;-64
2024/03/07 07:42:53;;;;;;;3.80;2.90;;;;;;;;;;5102909;27;20027;-66
2024/03/07 07:45:20;;;;;;;5.32;2.75;;;;;;;;;;5081639;28;20057;-64
2024/03/07 07:47:51;;;;;;;5.07;2.00;;;;;;;;;;5082620;28;20122;-68
2024/03/07 07:50:18;;;;;;;6.45;2.80;;;;;;;;;;5099866;28;20023;-63
2024/03/07 07:52:50;;;;;;;7.13;2.97;;;;;;;;;;5099783;28;20042;-67
2024/03/07 07:55:19;;;;;;;5.22;2.60;;;;;;;;;;5094852;28;20038;-65
2024/03/07 07:57:48;;;;;;;4.95;3.08;;;;;;;;;;5071969;28;20077;-67
2024/03/07 08:00:25;;;;;;;6.45;3.22;;;;;;;;;;5101870;28;20023;-67
2024/03/07 08:03:02;;;;;;;6.40;2.60;;;;;;;;;;5108788;28;20016;-66
2024/03/07 08:05:32;;;;;;;8.20;2.67;;;;;;;;;;5101841;27;20036;-63
2024/03/07 08:08:00;;;;;;;5.43;2.65;;;;;;;;;;5101063;28;20111;-63
2024/03/07 08:10:30;;;;;;;4.22;2.70;;;;;;;;;;5065932;28;20031;-65
2024/03/07 08:13:00;;;;;;;3.65;3.05;;;;;;;;;;5106896;28;20047;-64
2024/03/07 08:15:27;;;;;;;7.68;2.72;;;;;;;;;;5102651;28;20038;-64
2024/03/07 08:17:57;;;;;;;3.17;2.85;;;;;;;;;;5081421;28;20479;-64
2024/03/07 08:20:25;;;;;;;3.63;2.80;;;;;;;;;;5095891;27;20028;-64
2024/03/07 08:22:52;;;;;;;2.53;2.33;;;;;;;;;;5096573;28;20436;-63
2024/03/07 08:25:19;;;;;;;8.73;2.70;;;;;;;;;;5102297;27;20031;-64
2024/03/07 08:27:46;;;;;;;5.00;2.40;;;;;;;;;;5100269;28;20441;-63
2024/03/07 08:30:12;;;;;;;2.90;2.58;;;;;;;;;;5099054;28;21291;-64
2024/03/07 08:32:47;;;;;;;5.70;2.85;;;;;;;;;;5100590;28;20034;-64
2024/03/07 08:35:16;;;;;;;3.17;2.58;;;;;;;;;;5082053;28;20551;-64
2024/03/07 08:37:44;;;;;;;4.13;2.90;;;;;;;;;;5094742;28;20040;-63
2024/03/07 08:40:10;;;;;;;3.38;2.90;;;;;;;;;;5094694;28;20028;-66
2024/03/07 08:42:37;;;;;;;4.18;2.70;;;;;;;;;;5093677;28;20033;-64
2024/03/07 08:45:05;;;;;;;4.55;2.60;;;;;;;;;;5094780;28;20031;-66
2024/03/07 08:47:40;;;;;;;7.05;2.95;;;;;;;;;;5097855;28;20035;-65
2024/03/07 08:50:08;;;;;;;6.43;2.85;;;;;;;;;;5102231;28;20057;-66
2024/03/07 08:52:38;;;;;;;4.85;2.45;;;;;;;;;;5095560;28;20052;-67
2024/03/07 08:55:04;;;;;;;15.18;3.25;;;;;;;;;;5096812;28;20024;-65
2024/03/07 08:57:32;;;;;;;4.78;2.70;;;;;;;;;;5095490;28;20102;-64
2024/03/07 09:00:01;;;;;;;4.63;3.13;;;;;;;;;;5100256;28;20034;-64
2024/03/07 09:02:27;;;;;;;4.20;3.08;;;;;;;;;;5092367;28;20019;-63
2024/03/07 09:04:53;;;;;;;2.75;2.45;;;;;;;;;;5097735;28;20051;-64
2024/03/07 09:07:20;;;;;;;4.13;3.00;;;;;;;;;;5093008;28;20140;-62
2024/03/07 09:09:46;;;;;;;6.95;2.78;;;;;;;;;;5090004;28;20016;-64
2024/03/07 09:12:13;;;;;;;14.88;3.38;;;;;;;;;;5090404;28;20024;-63
2024/03/07 09:14:39;;;;;;;3.67;3.30;;;;;;;;;;5100807;28;20415;-63
2024/03/07 09:17:06;;;;;;;6.43;3.08;;;;;;;;;;5097682;28;20031;-63
2024/03/07 09:19:32;;;;;;;3.33;2.67;;;;;;;;;;5097052;28;20019;-63
2024/03/07 09:21:59;;;;;;;5.82;3.65;;;;;;;;;;5099032;28;20020;-63
2024/03/07 09:24:26;;;;;;;3.38;2.80;;;;;;;;;;5102668;28;20475;-64
2024/03/07 09:26:55;;;;;;;3.85;2.63;;;;;;;;;;5104932;28;20035;-64
2024/03/07 09:29:22;;;;;;;3.40;3.10;;;;;;;;;;5097575;27;20125;-63
2024/03/07 09:31:51;;;;;;;4.65;3.30;;;;;;;;;;5100506;28;20032;-63
2024/03/07 09:34:18;;;;;;;10.25;3.30;;;;;;;;;;5101925;27;20096;-65
2024/03/07 09:36:45;;;;;;;4.68;2.80;;;;;;;;;;5099953;27;20044;-65
2024/03/07 09:39:12;;;;;;;3.78;2.75;;;;;;;;;;5078681;28;20037;-64
2024/03/07 09:41:41;;;;;;;4.60;2.85;;;;;;;;;;5080352;28;20023;-67
2024/03/07 09:44:13;;;;;;;3.65;2.83;;;;;;;;;;5083905;28;20162;-67
2024/03/07 09:46:39;;;;;;;4.75;2.63;;;;;;;;;;5099187;28;20066;-65
2024/03/07 09:49:06;;;;;;;5.85;2.97;;;;;;;;;;5088541;28;20036;-66
2024/03/07 09:51:34;;;;;;;9.95;3.83;;;;;;;;;;5100583;28;20027;-68
2024/03/07 09:54:00;;;;;;;3.55;2.90;;;;;;;;;;5071556;28;20054;-64
2024/03/07 09:56:28;;;;;;;4.75;3.20;;;;;;;;;;5101467;28;20031;-65
2024/03/07 09:58:57;;;;;;;17.63;3.55;;;;;;;;;;5084108;27;20473;-65
2024/03/07 10:01:26;;;;;;;4.07;2.60;;;;;;;;;;5083265;28;20030;-64
2024/03/07 10:03:57;;;;;;;4.38;2.60;;;;;;;;;;5078519;28;20366;-63
2024/03/07 10:06:24;;;;;;;3.45;2.50;;;;;;;;;;5106996;28;20645;-64
2024/03/07 10:08:50;;;;;;;3.83;3.00;;;;;;;;;;5102097;28;20448;-66
2024/03/07 10:11:16;;;;;;;3.92;2.83;;;;;;;;;;5104882;27;20028;-65
2024/03/07 10:13:46;;;;;;;6.90;2.97;;;;;;;;;;5099363;27;20212;-66
2024/03/07 10:16:12;;;;;;;2.58;2.38;;;;;;;;;;5084298;28;20024;-65
2024/03/07 10:18:42;;;;;;;7.85;3.08;;;;;;;;;;5105384;28;20062;-64
2024/03/07 10:21:11;;;;;;;4.88;2.88;;;;;;;;;;5099736;27;20032;-66
2024/03/07 10:23:37;;;;;;;7.55;3.55;;;;;;;;;;5095906;28;20443;-64
2024/03/07 10:26:05;;;;;;;4.38;3.08;;;;;;;;;;5078757;28;20438;-66
2024/03/07 10:28:31;;;;;;;9.90;3.53;;;;;;;;;;5092440;28;20020;-65
2024/03/07 10:30:57;;;;;;;5.28;3.38;;;;;;;;;;5081778;27;20034;-65
2024/03/07 10:33:27;;;;;;;6.05;3.45;;;;;;;;;;5098198;28;20617;-66
2024/03/07 10:35:53;;;;;;;9.30;3.08;;;;;;;;;;5082775;28;20114;-67
2024/03/07 10:38:19;;;;;;;6.93;3.08;;;;;;;;;;5080019;28;20078;-67
2024/03/07 10:40:55;;;;;;;8.05;3.03;;;;;;;;;;5099481;27;20043;-68
2024/03/07 10:43:21;;;;;;;4.25;3.35;;;;;;;;;;5093997;28;20028;-63
2024/03/07 10:45:48;;;;;;;3.92;3.45;;;;;;;;;;5099139;27;20020;-64
2024/03/07 10:48:17;;;;;;;5.13;2.90;;;;;;;;;;5096545;28;20081;-67
2024/03/07 10:50:49;;;;;;;6.63;3.35;;;;;;;;;;5097777;27;20032;-67
2024/03/07 10:53:30;;;;;;;5.57;3.30;;;;;;;;;;5081874;28;20038;-66
2024/03/07 10:56:14;;;;;;;8.23;3.05;;;;;;;;;;5090960;27;20035;-66
2024/03/07 10:58:49;;;;;;;8.20;3.45;;;;;;;;;;5079496;28;20051;-65
2024/03/07 11:01:18;;;;;;;8.57;3.22;;;;;;;;;;5098863;27;20443;-65
2024/03/07 11:03:44;;;;;;;5.45;2.92;;;;;;;;;;5100836;28;20413;-66
2024/03/07 11:06:11;;;;;;;8.48;3.88;;;;;;;;;;5099538;27;20070;-65
2024/03/07 11:08:37;;;;;;;13.35;3.58;;;;;;;;;;5080932;28;20080;-65
2024/03/07 11:11:04;;;;;;;9.77;3.85;;;;;;;;;;5101278;27;20036;-63
2024/03/07 11:13:34;;;;;;;4.78;3.15;;;;;;;;;;5099475;28;20023;-67
2024/03/07 11:16:01;;;;;;;7.70;3.60;;;;;;;;;;5083596;28;20019;-68
2024/03/07 11:18:28;;;;;;;4.30;3.10;;;;;;;;;;5101388;28;20089;-68
2024/03/07 11:20:57;;;;;;;5.38;3.28;;;;;;;;;;5105294;27;20032;-68
2024/03/07 11:23:38;;;;;;;7.88;3.47;;;;;;;;;;5083795;28;20028;-67
2024/03/07 11:26:08;;;;;;;13.10;3.67;;;;;;;;;;5098391;27;20381;-67
2024/03/07 11:28:42;;;;;;;7.07;3.50;;;;;;;;;;5102855;27;20391;-67
2024/03/07 11:31:09;;;;;;;4.97;2.88;;;;;;;;;;5102975;28;20035;-67
2024/03/07 11:33:40;;;;;;;4.60;3.28;;;;;;;;;;5098785;28;20537;-67
2024/03/07 11:36:11;;;;;;;11.32;3.35;;;;;;;;;;5101843;27;20036;-68
2024/03/07 11:38:38;;;;;;;3.60;2.80;;;;;;;;;;5099196;28;20050;-66
2024/03/07 11:41:08;;;;;;;4.45;2.67;;;;;;;;;;5085004;28;20402;-68
2024/03/07 11:43:35;;;;;;;4.88;3.30;;;;;;;;;;5087861;28;20016;-66
2024/03/07 11:46:01;;;;;;;6.30;3.05;;;;;;;;;;5097189;28;20442;-64
2024/03/07 11:48:27;;;;;;;8.15;3.28;;;;;;;;;;5105017;27;20036;-63
2024/03/07 11:50:55;;;;;;;3.60;3.28;;;;;;;;;;5098327;28;20038;-62
2024/03/07 11:53:21;;;;;;;10.23;3.92;;;;;;;;;;5099124;28;20508;-65
2024/03/07 11:55:48;;;;;;;4.18;3.30;;;;;;;;;;5098555;28;20527;-65
2024/03/07 11:58:21;;;;;;;6.38;3.40;;;;;;;;;;5098049;27;20055;-64
2024/03/07 12:00:47;;;;;;;9.68;3.80;;;;;;;;;;5093784;28;20034;-64
2024/03/07 12:03:14;;;;;;;6.45;3.45;;;;;;;;;;5093855;28;20484;-64
2024/03/07 12:05:44;;;;;;;9.18;4.65;;;;;;;;;;5097980;28;20104;-64
2024/03/07 12:08:11;;;;;;;7.82;3.92;;;;;;;;;;5101489;27;20378;-64
2024/03/07 12:10:43;;;;;;;7.72;3.90;;;;;;;;;;5100484;28;20028;-65
2024/03/07 12:13:11;;;;;;;6.45;3.75;;;;;;;;;;5098557;28;20031;-65
2024/03/07 12:15:38;;;;;;;4.93;3.40;;;;;;;;;;5099425;27;20038;-65
2024/03/07 12:18:08;;;;;;;9.88;4.57;;;;;;;;;;5097601;28;20023;-65
2024/03/07 12:20:35;;;;;;;12.20;4.50;;;;;;;;;;5100135;27;20036;-64
2024/03/07 12:23:02;;;;;;;6.60;3.75;;;;;;;;;;5078732;28;20027;-65
2024/03/07 12:25:29;;;;;;;7.20;3.90;;;;;;;;;;5096681;28;20496;-65
2024/03/07 12:28:11;;;;;;;6.60;3.72;;;;;;;;;;5096617;28;20062;-66
2024/03/07 12:31:00;;;;;;;6.53;3.75;;;;;;;;;;5090772;28;20449;-67
2024/03/07 12:33:29;;;;;;;7.25;3.92;;;;;;;;;;5094027;28;20035;-66
2024/03/07 12:36:05;;;;;;;5.55;4.15;;;;;;;;;;5102646;28;20035;-67
2024/03/07 12:38:35;;;;;;;5.50;3.83;;;;;;;;;;5059620;28;20040;-67
2024/03/07 12:41:08;;;;;;;9.88;4.03;;;;;;;;;;5060644;28;20060;-70
2024/03/07 12:43:34;;;;;;;5.43;3.75;;;;;;;;;;5057575;28;20039;-70
2024/03/07 12:46:00;;;;;;;6.00;3.85;;;;;;;;;;5058305;28;20440;-70
2024/03/07 12:48:27;;;;;;;7.05;4.18;;;;;;;;;;5059488;28;20032;-69
2024/03/07 12:50:53;;;;;;;6.32;4.35;;;;;;;;;;5060106;28;20574;-67
2024/03/07 12:53:21;;;;;;;9.88;4.57;;;;;;;;;;5059345;28;20402;-67
2024/03/07 12:55:48;;;;;;;9.13;3.88;;;;;;;;;;5062079;28;20478;-69
2024/03/07 12:58:23;;;;;;;9.52;4.28;;;;;;;;;;5064873;28;20028;-67
2024/03/07 13:00:55;;;;;;;10.95;4.95;;;;;;;;;;5060327;28;20036;-67
2024/03/07 13:03:21;;;;;;;6.38;3.67;;;;;;;;;;5062808;28;20397;-67
2024/03/07 13:05:47;;;;;;;10.30;4.53;;;;;;;;;;5061964;28;20025;-67
2024/03/07 13:08:13;;;;;;;8.43;3.58;;;;;;;;;;5063887;28;20395;-68
2024/03/07 13:10:40;;;;;;;8.00;4.70;;;;;;;;;;5063311;28;20028;-67
2024/03/07 13:13:06;;;;;;;12.07;4.43;;;;;;;;;;5062870;28;20040;-68
2024/03/07 13:15:32;;;;;;;4.90;4.03;;;;;;;;;;5061302;28;20025;-67
2024/03/07 13:17:59;;;;;;;7.07;4.53;;;;;;;;;;5064328;28;20034;-67
2024/03/07 13:20:26;;;;;;;7.10;4.25;;;;;;;;;;5064808;28;20024;-68
2024/03/07 13:22:53;;;;;;;9.27;4.53;;;;;;;;;;5064751;28;20024;-67
2024/03/07 13:25:26;;;;;;;7.32;3.78;;;;;;;;;;5059783;28;20031;-68
2024/03/07 13:28:02;;;;;;;4.97;3.97;;;;;;;;;;5062403;28;20036;-67
2024/03/07 13:30:29;;;;;;;7.97;4.15;;;;;;;;;;5061529;28;20039;-67
2024/03/07 13:32:56;;;;;;;6.22;4.03;;;;;;;;;;5062117;28;20058;-67
2024/03/07 13:35:23;;;;;;;6.38;3.63;;;;;;;;;;5060731;28;20092;-68
2024/03/07 13:37:49;;;;;;;7.38;4.32;;;;;;;;;;5088178;28;20098;-68
2024/03/07 13:40:25;;;;;;;7.75;4.53;;;;;;;;;;5092210;28;20103;-68
2024/03/07 13:42:54;;;;;;;6.07;3.97;;;;;;;;;;5102436;28;20019;-69
2024/03/07 13:45:21;;;;;;;9.23;4.65;;;;;;;;;;5099985;28;20473;-68
2024/03/07 13:47:48;;;;;;;5.68;3.30;;;;;;;;;;5100796;28;20435;-68
2024/03/07 13:50:15;;;;;;;8.82;4.15;;;;;;;;;;5076771;28;20065;-68
2024/03/07 13:53:04;;;;;;;6.07;4.30;;;;;;;;;;5107338;28;20028;-68
2024/03/07 13:55:30;;;;;;;8.32;4.20;;;;;;;;;;5098925;27;20039;-67
2024/03/07 13:57:59;;;;;;;8.75;3.80;;;;;;;;;;5089955;28;20039;-68
2024/03/07 14:00:37;;;;;;;10.18;3.33;;;;;;;;;;5098268;28;20567;-68
2024/03/07 14:03:15;;;;;;;9.80;5.03;;;;;;;;;;5086543;28;20027;-67
2024/03/07 14:05:48;;;;;;;11.77;4.88;;;;;;;;;;5092401;27;20465;-67
2024/03/07 14:08:18;;;;;;;9.23;5.00;;;;;;;;;;5088150;28;20036;-68
2024/03/07 14:11:11;;;;;;;11.00;4.57;;;;;;;;;;5103367;27;20031;-68
2024/03/07 14:13:43;;;;;;;7.97;4.40;;;;;;;;;;5087371;28;20149;-70
2024/03/07 14:16:12;;;;;;;7.15;4.30;;;;;;;;;;5071904;28;20032;-67
2024/03/07 14:18:52;;;;;;;7.32;4.75;;;;;;;;;;5073284;28;20032;-68
2024/03/07 14:21:37;;;;;;;6.85;4.35;;;;;;;;;;5077473;28;20493;-68
2024/03/07 14:24:22;;;;;;;7.72;4.53;;;;;;;;;;5092807;27;20038;-67
2024/03/07 14:27:09;;;;;;;6.95;4.22;;;;;;;;;;5082098;28;20031;-73
2024/03/07 14:29:52;;;;;;;8.77;4.35;;;;;;;;;;5091092;27;20877;-70
2024/03/07 14:32:19;;;;;;;9.75;5.00;;;;;;;;;;5105797;27;20091;-69
2024/03/07 14:34:46;;;;;;;6.22;4.57;;;;;;;;;;5086599;28;20032;-72
2024/03/07 14:37:26;;;;;;;7.13;4.75;;;;;;;;;;5102290;28;20141;-73
2024/03/07 14:39:54;;;;;;;7.93;4.25;;;;;;;;;;5101884;28;20032;-72
2024/03/07 14:42:21;;;;;;;7.70;4.80;;;;;;;;;;5102526;27;20703;-70
2024/03/07 14:44:50;;;;;;;7.63;4.82;;;;;;;;;;5092473;27;20392;-73
2024/03/07 14:47:19;;;;;;;8.65;4.57;;;;;;;;;;5100901;28;20031;-74